Terminal Aerodrome Forecast
Issued by NWS

Home | Current Version | Previous Version | Text Only | Print | Product List | Glossary On
Versions: 1 2 3 4 5 6 7 8 9 10 11 12 13 14 15 16 17 18 19 20 21 22
000
FTUS42 TJSJ 171359 AAB
TAFIST
TAF AMD
TIST 171359Z 1714/1812 08012KT P6SM SCT020 BKN060
     FM171500 09018G28KT P6SM SCT025 BKN060
     FM172300 09012KT P6SM FEW025=

USA.gov is the U.S. government's official web portal to all federal, state and local government web resources and services.